createdAt,value
2018-06-11T00:02:07.439Z,58.10
2018-06-11T00:07:03.057Z,58.30
2018-06-11T00:09:30.907Z,58.20
2018-06-11T00:11:58.849Z,58.60
2018-06-11T00:14:26.761Z,58.90
2018-06-11T00:16:54.617Z,58.60
2018-06-11T00:19:22.455Z,58.80
2018-06-11T00:21:50.413Z,58.70
2018-06-11T00:24:18.485Z,58.60
2018-06-11T00:26:46.724Z,58.60
2018-06-11T00:29:14.604Z,58.20
2018-06-11T00:31:42.504Z,58.00
2018-06-11T00:34:10.284Z,57.90
2018-06-11T00:36:38.058Z,58.10
2018-06-11T00:39:07.716Z,58.10
2018-06-11T00:41:35.466Z,58.40
2018-06-11T00:44:03.236Z,58.40
2018-06-11T00:46:31.000Z,58.20
2018-06-11T00:48:58.849Z,58.70
2018-06-11T00:51:26.677Z,58.70
2018-06-11T00:53:54.437Z,58.10
2018-06-11T00:56:22.254Z,58.40
2018-06-11T01:01:18.050Z,59.30
2018-06-11T01:03:47.096Z,58.70
2018-06-11T01:06:15.178Z,58.50
2018-06-11T01:08:43.037Z,58.70
2018-06-11T01:11:11.008Z,59.00
2018-06-11T01:13:38.829Z,58.90
2018-06-11T01:16:06.589Z,58.80
2018-06-11T01:18:34.402Z,58.90
2018-06-11T01:21:02.384Z,58.60
2018-06-11T01:23:30.174Z,59.00
2018-06-11T01:25:58.401Z,59.10
2018-06-11T01:28:26.330Z,59.20
2018-06-11T01:30:54.302Z,59.40
2018-06-11T01:33:22.165Z,59.40
2018-06-11T01:35:49.923Z,59.30
2018-06-11T01:38:17.929Z,59.30
2018-06-11T01:43:15.703Z,59.70
2018-06-11T01:45:43.542Z,60.00
2018-06-11T01:48:11.352Z,60.70
2018-06-11T01:50:39.177Z,61.20
2018-06-11T01:53:07.012Z,61.10
2018-06-11T01:55:34.865Z,60.70
2018-06-11T01:58:02.722Z,61.00
2018-06-11T02:00:30.605Z,60.90
2018-06-11T02:02:58.386Z,60.60
2018-06-11T02:05:26.237Z,60.40
2018-06-11T02:07:54.428Z,60.00
2018-06-11T02:10:22.785Z,59.60
2018-06-11T02:12:50.783Z,59.10
2018-06-11T02:15:18.665Z,59.30
2018-06-11T02:17:46.633Z,59.50
2018-06-11T02:20:14.667Z,59.40
2018-06-11T02:22:42.495Z,59.30
2018-06-11T02:25:10.382Z,59.60
2018-06-11T02:27:38.173Z,59.90
2018-06-11T02:30:06.225Z,60.10
2018-06-11T02:32:34.076Z,59.70
2018-06-11T02:35:01.958Z,59.60
2018-06-11T02:37:29.804Z,59.60
2018-06-11T02:39:57.876Z,59.90
2018-06-11T02:44:55.381Z,59.90
2018-06-11T02:47:23.170Z,59.80
2018-06-11T02:49:51.144Z,59.70
2018-06-11T02:52:18.995Z,59.80
2018-06-11T02:54:46.794Z,60.20
2018-06-11T02:57:14.597Z,60.20
2018-06-11T02:59:42.450Z,60.50
2018-06-11T03:02:10.259Z,60.80
2018-06-11T03:04:38.233Z,60.70
2018-06-11T03:07:06.101Z,60.90
2018-06-11T03:09:33.950Z,60.80
2018-06-11T03:12:01.845Z,60.80
2018-06-11T03:14:29.665Z,61.10
2018-06-11T03:16:57.481Z,61.10
2018-06-11T03:19:25.233Z,61.10
2018-06-11T03:21:53.036Z,60.70
2018-06-11T03:24:20.825Z,61.10
2018-06-11T03:26:48.691Z,61.00
2018-06-11T03:29:16.709Z,61.00
2018-06-11T03:31:44.713Z,61.30
2018-06-11T03:34:12.715Z,61.50
2018-06-11T03:36:40.589Z,61.30
2018-06-11T03:39:09.076Z,61.00
2018-06-11T03:41:37.145Z,60.90
2018-06-11T03:44:04.965Z,60.80
2018-06-11T03:49:00.974Z,61.30
2018-06-11T03:51:28.794Z,60.80
2018-06-11T03:53:56.768Z,60.20
2018-06-11T03:56:24.597Z,60.30
2018-06-11T03:58:52.505Z,59.90
2018-06-11T04:01:20.643Z,60.80
2018-06-11T04:03:48.478Z,61.10
2018-06-11T04:06:16.318Z,60.80
2018-06-11T04:08:44.197Z,60.30
2018-06-11T04:11:12.314Z,61.10
2018-06-11T04:13:40.206Z,60.90
2018-06-11T04:16:08.087Z,61.20
2018-06-11T04:18:35.962Z,61.40
2018-06-11T04:21:04.037Z,61.80
2018-06-11T04:23:31.917Z,61.70
2018-06-11T04:25:59.858Z,61.30
2018-06-11T04:28:27.762Z,61.70
2018-06-11T04:30:55.540Z,61.50
2018-06-11T04:33:23.282Z,61.00
2018-06-11T04:35:51.065Z,61.30
2018-06-11T04:38:18.836Z,61.20
2018-06-11T04:40:51.825Z,60.70
2018-06-11T04:43:19.607Z,60.10
2018-06-11T04:48:15.005Z,60.20
2018-06-11T04:50:42.841Z,58.70
2018-06-11T04:53:10.645Z,59.50
2018-06-11T04:55:38.422Z,58.50
2018-06-11T04:58:06.281Z,58.10
2018-06-11T05:00:34.113Z,58.00
2018-06-11T05:03:02.106Z,58.50
2018-06-11T05:05:30.156Z,58.70
2018-06-11T05:07:58.082Z,58.60
2018-06-11T05:10:25.950Z,58.60
2018-06-11T05:15:21.418Z,58.20
2018-06-11T05:17:49.221Z,56.80
2018-06-11T05:20:17.293Z,57.00
2018-06-11T05:25:12.720Z,56.50
2018-06-11T05:27:40.489Z,56.90
2018-06-11T05:30:08.361Z,57.20
2018-06-11T05:32:36.510Z,57.60
2018-06-11T05:35:04.365Z,57.60
2018-06-11T05:37:33.189Z,57.30
2018-06-11T05:40:01.486Z,57.50
2018-06-11T05:42:29.725Z,57.60
2018-06-11T05:44:57.624Z,57.20
2018-06-11T05:47:25.445Z,57.50
2018-06-11T05:49:53.563Z,57.70
2018-06-11T05:52:21.393Z,58.10
2018-06-11T05:54:49.201Z,58.40
2018-06-11T05:57:16.981Z,58.50
2018-06-11T05:59:44.889Z,58.20
2018-06-11T06:02:12.729Z,58.00
2018-06-11T06:04:40.512Z,57.20
2018-06-11T06:07:08.281Z,56.10
2018-06-11T06:09:36.270Z,56.70
2018-06-11T06:12:04.045Z,56.60
2018-06-11T06:16:59.878Z,56.10
2018-06-11T06:19:28.194Z,55.30
2018-06-11T06:21:55.994Z,54.90
2018-06-11T06:24:23.765Z,52.50
2018-06-11T06:26:51.535Z,52.60
2018-06-11T06:31:47.238Z,53.30
2018-06-11T06:34:15.130Z,52.60
2018-06-11T06:36:43.145Z,53.40
2018-06-11T06:39:10.982Z,51.50
2018-06-11T06:41:38.850Z,51.50
2018-06-11T06:44:06.616Z,51.90
2018-06-11T06:49:02.425Z,49.20
2018-06-11T06:51:30.734Z,49.20
2018-06-11T06:53:58.600Z,48.50
2018-06-11T06:56:26.481Z,48.60
2018-06-11T06:58:54.277Z,48.40
2018-06-11T07:01:22.084Z,48.60
2018-06-11T07:06:19.277Z,47.60
2018-06-11T07:08:47.155Z,48.50
2018-06-11T07:11:15.019Z,49.30
2018-06-11T07:13:42.853Z,48.80
2018-06-11T07:16:10.690Z,45.60
2018-06-11T07:18:38.720Z,45.00
2018-06-11T07:21:06.765Z,44.70
2018-06-11T07:23:34.577Z,45.50
2018-06-11T07:26:02.495Z,45.00
2018-06-11T07:28:30.557Z,45.60
2018-06-11T07:30:58.702Z,46.20
2018-06-11T07:33:26.480Z,48.20
2018-06-11T07:35:54.302Z,49.50
2018-06-11T07:38:22.121Z,50.40
2018-06-11T07:40:50.081Z,50.60
2018-06-11T07:43:17.926Z,50.50
2018-06-11T07:45:45.761Z,50.50
2018-06-11T07:48:13.564Z,51.00
2018-06-11T07:50:41.393Z,49.60
2018-06-11T07:53:09.159Z,47.50
2018-06-11T07:55:36.933Z,44.70
2018-06-11T07:58:04.758Z,45.40
2018-06-11T08:00:32.734Z,46.00
2018-06-11T08:03:00.987Z,47.30
2018-06-11T08:05:28.994Z,45.90
2018-06-11T08:07:56.834Z,45.40
2018-06-11T08:10:24.605Z,46.90
2018-06-11T08:12:52.404Z,42.80
2018-06-11T08:15:20.789Z,41.20
2018-06-11T08:17:48.627Z,40.90
2018-06-11T08:22:44.041Z,40.40
2018-06-11T08:25:11.834Z,43.30
2018-06-11T08:27:39.626Z,42.40
2018-06-11T08:30:07.413Z,42.70
2018-06-11T08:32:35.222Z,40.50
2018-06-11T08:35:03.075Z,42.00
2018-06-11T08:37:30.863Z,42.00
2018-06-11T08:39:59.390Z,42.80
2018-06-11T08:42:27.226Z,42.40
2018-06-11T08:44:55.021Z,38.70
2018-06-11T08:47:22.810Z,35.30
2018-06-11T08:49:50.799Z,37.10
2018-06-11T08:54:46.241Z,40.90
2018-06-11T08:57:14.102Z,39.70
2018-06-11T08:59:42.231Z,40.70
2018-06-11T09:02:10.049Z,40.20
2018-06-11T09:04:37.837Z,39.40
2018-06-11T09:07:05.738Z,39.80
2018-06-11T09:09:34.186Z,40.80
2018-06-11T09:12:02.000Z,40.60
2018-06-11T09:14:29.862Z,40.60
2018-06-11T09:16:57.758Z,41.30
2018-06-11T09:19:25.799Z,41.90
2018-06-11T09:21:53.579Z,42.20
2018-06-11T09:26:49.010Z,43.30
2018-06-11T09:29:16.845Z,44.00
2018-06-11T09:31:44.590Z,42.90
2018-06-11T09:34:12.378Z,41.70
2018-06-11T09:36:40.177Z,42.40
2018-06-11T09:39:08.597Z,42.30
2018-06-11T09:41:36.473Z,43.10
2018-06-11T09:44:04.461Z,42.60
2018-06-11T09:46:32.463Z,41.70
2018-06-11T09:49:00.467Z,40.50
2018-06-11T09:51:28.269Z,39.90
2018-06-11T09:53:56.082Z,40.10
2018-06-11T09:56:23.861Z,40.60
2018-06-11T09:58:51.650Z,41.30
2018-06-11T10:01:19.429Z,41.80
2018-06-11T10:03:47.202Z,41.40
2018-06-11T10:06:15.020Z,40.70
2018-06-11T10:08:42.773Z,40.00
2018-06-11T10:11:10.538Z,39.70
2018-06-11T10:13:38.385Z,39.90
2018-06-11T10:16:06.161Z,40.60
2018-06-11T10:18:34.073Z,40.50
2018-06-11T10:21:02.041Z,39.70
2018-06-11T10:23:29.837Z,40.40
2018-06-11T10:25:57.639Z,40.20
2018-06-11T10:28:25.415Z,40.70
2018-06-11T10:30:53.201Z,40.60
2018-06-11T10:33:20.981Z,41.10
2018-06-11T10:35:48.765Z,42.00
2018-06-11T10:38:16.541Z,42.00
2018-06-11T10:40:44.326Z,42.60
2018-06-11T10:43:12.105Z,43.30
2018-06-11T10:45:39.852Z,43.50
2018-06-11T10:48:07.640Z,44.10
2018-06-11T10:50:35.564Z,43.60
2018-06-11T10:53:03.529Z,43.90
2018-06-11T10:55:31.641Z,45.10
2018-06-11T10:57:59.502Z,45.70
2018-06-11T11:00:27.498Z,45.70
2018-06-11T11:02:55.245Z,45.00
2018-06-11T11:05:23.085Z,44.30
2018-06-11T11:07:50.857Z,45.00
2018-06-11T11:10:18.889Z,44.10
2018-06-11T11:12:46.644Z,44.00
2018-06-11T11:17:42.058Z,43.00
2018-06-11T11:20:09.959Z,43.30
2018-06-11T11:22:37.787Z,43.60
2018-06-11T11:25:05.610Z,43.80
2018-06-11T11:27:33.410Z,44.30
2018-06-11T11:30:01.451Z,43.50
2018-06-11T11:32:29.215Z,44.10
2018-06-11T11:34:57.005Z,44.10
2018-06-11T11:37:24.772Z,43.40
2018-06-11T11:39:52.645Z,43.00
2018-06-11T11:42:20.437Z,44.10
2018-06-11T11:44:48.202Z,44.70
2018-06-11T11:47:15.996Z,45.50
2018-06-11T11:49:44.017Z,46.50
2018-06-11T11:52:11.776Z,46.00
2018-06-11T11:54:39.557Z,46.60
2018-06-11T11:57:07.348Z,47.10
2018-06-11T12:02:02.890Z,47.40
2018-06-11T12:04:30.704Z,49.10
2018-06-11T12:06:58.461Z,50.00
2018-06-11T12:09:26.212Z,50.00
2018-06-11T12:11:53.984Z,50.80
2018-06-11T12:14:21.761Z,50.80
2018-06-11T12:16:49.516Z,51.30
2018-06-11T12:19:17.309Z,51.50
2018-06-11T12:21:45.927Z,52.30
2018-06-11T12:24:13.690Z,52.40
2018-06-11T12:26:41.497Z,52.70
2018-06-11T12:29:09.241Z,52.40
2018-06-11T12:31:37.005Z,52.10
2018-06-11T12:34:04.828Z,51.30
2018-06-11T12:36:32.571Z,52.00
2018-06-11T12:39:00.353Z,52.40
2018-06-11T12:41:28.103Z,52.10
2018-06-11T12:43:55.863Z,51.90
2018-06-11T12:46:23.649Z,51.20
2018-06-11T12:48:51.409Z,51.10
2018-06-11T12:51:19.363Z,50.00
2018-06-11T12:53:47.805Z,50.40
2018-06-11T12:56:15.637Z,49.70
2018-06-11T12:58:43.384Z,49.80
2018-06-11T13:01:11.360Z,50.40
2018-06-11T13:06:06.821Z,49.40
2018-06-11T13:08:34.721Z,50.70
2018-06-11T13:11:03.130Z,52.00
2018-06-11T13:13:30.900Z,52.60
2018-06-11T13:15:58.710Z,53.70
2018-06-11T13:18:26.485Z,53.80
2018-06-11T13:20:54.365Z,53.80
2018-06-11T13:23:22.169Z,53.60
2018-06-11T13:28:17.586Z,53.30
2018-06-11T13:30:45.449Z,52.00
2018-06-11T13:35:40.899Z,52.90
2018-06-11T13:38:08.649Z,52.10
2018-06-11T13:40:36.584Z,51.80
2018-06-11T13:43:04.497Z,51.30
2018-06-11T13:45:32.604Z,51.80
2018-06-11T13:48:00.377Z,52.20
2018-06-11T13:50:28.498Z,52.10
2018-06-11T13:55:23.902Z,49.20
2018-06-11T13:57:51.654Z,48.50
2018-06-11T14:00:19.436Z,48.30
2018-06-11T14:02:47.220Z,48.40
2018-06-11T14:05:14.984Z,48.30
2018-06-11T14:07:42.719Z,47.80
2018-06-11T14:10:10.491Z,48.70
2018-06-11T14:12:38.282Z,49.40
2018-06-11T14:15:06.145Z,49.30
2018-06-11T14:20:02.198Z,51.20
2018-06-11T14:22:29.921Z,52.50
2018-06-11T14:24:57.666Z,53.10
2018-06-11T14:27:25.482Z,54.80
2018-06-11T14:29:53.223Z,55.50
2018-06-11T14:32:20.976Z,55.60
2018-06-11T14:34:48.773Z,56.10
2018-06-11T14:37:16.517Z,57.40
2018-06-11T14:39:44.338Z,58.30
2018-06-11T14:42:12.125Z,58.50
2018-06-11T14:44:39.908Z,58.30
2018-06-11T14:47:07.686Z,58.40
2018-06-11T14:52:03.648Z,57.50
2018-06-11T14:54:31.513Z,58.30
2018-06-11T14:56:59.901Z,56.90
2018-06-11T14:59:27.709Z,57.00
2018-06-11T15:01:55.521Z,57.40
2018-06-11T15:04:23.273Z,57.10
2018-06-11T15:09:18.808Z,57.00
2018-06-11T15:11:46.573Z,57.00
2018-06-11T15:14:15.501Z,56.70
2018-06-11T15:16:43.989Z,57.00
2018-06-11T15:19:11.780Z,57.20
2018-06-11T15:21:39.546Z,56.40
2018-06-11T15:24:07.332Z,56.80
2018-06-11T15:26:38.324Z,56.10
2018-06-11T15:29:06.529Z,55.70
2018-06-11T15:31:34.514Z,55.20
2018-06-11T15:36:30.094Z,54.90
2018-06-11T15:38:57.861Z,55.50
2018-06-11T15:41:25.625Z,55.20
2018-06-11T15:43:53.413Z,54.50
2018-06-11T15:46:21.217Z,53.70
2018-06-11T15:48:48.973Z,52.90
2018-06-11T15:51:16.789Z,52.20
2018-06-11T15:53:44.548Z,52.60
2018-06-11T15:56:12.854Z,52.60
2018-06-11T15:58:40.687Z,52.90
2018-06-11T16:01:08.461Z,53.50
2018-06-11T16:03:36.301Z,53.70
2018-06-11T16:06:05.220Z,54.10
2018-06-11T16:08:33.121Z,54.80
2018-06-11T16:13:28.533Z,55.40
2018-06-11T16:15:56.297Z,55.90
2018-06-11T16:18:24.078Z,56.20
2018-06-11T16:20:51.941Z,56.70
2018-06-11T16:23:21.920Z,57.00
2018-06-11T16:25:49.765Z,57.00
2018-06-11T16:28:19.762Z,57.30
2018-06-11T16:30:47.593Z,57.90
2018-06-11T16:33:15.501Z,58.70
2018-06-11T16:35:43.396Z,58.10
2018-06-11T16:38:11.177Z,58.30
2018-06-11T16:40:38.969Z,59.40
2018-06-11T16:43:06.783Z,59.20
2018-06-11T16:45:34.765Z,59.30
2018-06-11T16:48:02.647Z,59.60
2018-06-11T16:50:30.653Z,59.00
2018-06-11T16:52:58.461Z,59.10
2018-06-11T16:55:26.234Z,58.40
2018-06-11T16:57:54.010Z,58.10
2018-06-11T17:00:21.991Z,58.30
2018-06-11T17:02:49.765Z,58.60
2018-06-11T17:05:17.518Z,58.00
2018-06-11T17:07:45.285Z,57.70
2018-06-11T17:10:13.378Z,57.90
2018-06-11T17:15:08.864Z,57.90
2018-06-11T17:17:36.938Z,57.70
2018-06-11T17:20:04.910Z,58.20
2018-06-11T17:22:32.752Z,58.80
2018-06-11T17:25:00.513Z,59.00
2018-06-11T17:27:28.335Z,59.50
2018-06-11T17:29:56.090Z,59.40
2018-06-11T17:32:23.869Z,59.00
2018-06-11T17:34:51.648Z,59.30
2018-06-11T17:39:46.995Z,59.00
2018-06-11T17:42:14.834Z,58.90
2018-06-11T17:44:42.611Z,59.00
2018-06-11T17:47:10.429Z,58.70
2018-06-11T17:49:38.242Z,58.60
2018-06-11T17:52:06.266Z,57.50
2018-06-11T17:54:34.233Z,58.10
2018-06-11T17:57:02.041Z,58.60
2018-06-11T17:59:29.789Z,58.60
2018-06-11T18:01:57.635Z,58.60
2018-06-11T18:04:25.472Z,58.60
2018-06-11T18:06:53.246Z,58.50
2018-06-11T18:09:21.286Z,58.20
2018-06-11T18:11:49.045Z,57.80
2018-06-11T18:14:17.005Z,57.80
2018-06-11T18:16:44.938Z,58.00
2018-06-11T18:19:12.785Z,58.10
2018-06-11T18:21:40.645Z,58.50
2018-06-11T18:24:08.474Z,58.50
2018-06-11T18:26:36.286Z,58.20
2018-06-11T18:29:04.093Z,58.00
2018-06-11T18:31:32.050Z,58.00
2018-06-11T18:34:00.517Z,57.70
2018-06-11T18:36:28.311Z,57.50
2018-06-11T18:38:56.472Z,57.70
2018-06-11T18:41:24.579Z,57.80
2018-06-11T18:43:52.350Z,57.50
2018-06-11T18:46:20.169Z,57.10
2018-06-11T18:48:47.983Z,57.30
2018-06-11T18:51:16.310Z,57.30
2018-06-11T18:53:44.780Z,57.50
2018-06-11T18:56:13.194Z,57.80
2018-06-11T18:58:41.205Z,57.80
2018-06-11T19:01:09.101Z,58.00
2018-06-11T19:03:36.980Z,57.70
2018-06-11T19:08:32.914Z,57.70
2018-06-11T19:11:00.670Z,57.80
2018-06-11T19:13:28.471Z,58.00
2018-06-11T19:15:56.362Z,57.80
2018-06-11T19:18:24.169Z,57.90
2018-06-11T19:20:51.994Z,57.50
2018-06-11T19:23:19.758Z,57.80
2018-06-11T19:25:47.511Z,58.20
2018-06-11T19:28:15.298Z,58.60
2018-06-11T19:30:43.109Z,58.80
2018-06-11T19:33:10.938Z,58.70
2018-06-11T19:35:38.689Z,59.10
2018-06-11T19:38:06.523Z,59.30
2018-06-11T19:40:34.417Z,59.40
2018-06-11T19:43:02.422Z,59.40
2018-06-11T19:45:31.182Z,59.30
2018-06-11T19:47:59.343Z,59.50
2018-06-11T19:50:28.430Z,60.00
2018-06-11T19:52:56.533Z,60.00
2018-06-11T19:55:24.725Z,59.30
2018-06-11T20:00:22.104Z,59.50
2018-06-11T20:02:50.235Z,59.40
2018-06-11T20:05:19.047Z,59.70
2018-06-11T20:07:47.054Z,59.90
2018-06-11T20:10:15.622Z,60.00
2018-06-11T20:12:43.869Z,59.90
2018-06-11T20:15:11.868Z,60.30
2018-06-11T20:17:40.004Z,60.00
2018-06-11T20:20:08.546Z,60.30
2018-06-11T20:22:37.634Z,60.10
2018-06-11T20:25:06.409Z,60.10
2018-06-11T20:27:34.793Z,60.60
2018-06-11T20:30:02.857Z,60.40
2018-06-11T20:32:30.997Z,60.60
2018-06-11T20:34:59.024Z,60.60
2018-06-11T20:39:55.124Z,60.90
2018-06-11T20:42:23.169Z,61.20
2018-06-11T20:44:51.264Z,61.50
2018-06-11T20:47:19.582Z,61.60
2018-06-11T20:49:48.073Z,62.00
2018-06-11T20:52:16.213Z,62.10
2018-06-11T20:54:44.157Z,62.20
2018-06-11T20:57:12.085Z,62.90
2018-06-11T20:59:40.247Z,63.10
2018-06-11T21:02:08.219Z,62.70
2018-06-11T21:04:37.028Z,62.80
2018-06-11T21:09:33.320Z,62.60
2018-06-11T21:12:01.182Z,63.00
2018-06-11T21:14:29.336Z,62.70
2018-06-11T21:16:57.169Z,63.20
2018-06-11T21:19:25.312Z,63.90
2018-06-11T21:21:53.431Z,64.60
2018-06-11T21:24:21.309Z,64.60
2018-06-11T21:26:49.314Z,65.00
2018-06-11T21:29:17.175Z,65.80
2018-06-11T21:31:45.101Z,66.10
2018-06-11T21:34:12.984Z,66.10
2018-06-11T21:36:41.533Z,66.60
2018-06-11T21:39:09.396Z,66.90
2018-06-11T21:41:37.444Z,66.90
2018-06-11T21:44:05.394Z,66.90
2018-06-11T21:46:33.484Z,67.60
2018-06-11T21:49:01.546Z,67.00
2018-06-11T21:51:29.711Z,67.40
2018-06-11T21:53:57.663Z,67.70
2018-06-11T21:56:25.702Z,67.90
2018-06-11T21:58:53.667Z,68.20
2018-06-11T22:01:21.625Z,68.40
2018-06-11T22:03:49.889Z,68.40
2018-06-11T22:06:17.618Z,68.80
2018-06-11T22:08:45.465Z,68.90
2018-06-11T22:11:13.262Z,69.30
2018-06-11T22:13:41.098Z,69.60
2018-06-11T22:16:09.034Z,69.60
2018-06-11T22:21:04.966Z,70.10
2018-06-11T22:23:32.767Z,69.60
2018-06-11T22:26:00.601Z,68.90
2018-06-11T22:28:28.403Z,69.20
2018-06-11T22:30:56.234Z,69.40
2018-06-11T22:35:51.684Z,70.30
2018-06-11T22:38:19.943Z,70.50
2018-06-11T22:40:48.103Z,70.60
2018-06-11T22:43:16.087Z,71.00
2018-06-11T22:45:43.881Z,71.20
2018-06-11T22:48:11.721Z,71.40
2018-06-11T22:50:39.567Z,71.50
2018-06-11T22:55:35.261Z,71.00
2018-06-11T22:58:03.222Z,71.20
2018-06-11T23:00:34.097Z,71.50
2018-06-11T23:03:02.962Z,71.60
2018-06-11T23:05:30.753Z,72.20
2018-06-11T23:07:58.573Z,71.90
2018-06-11T23:10:26.813Z,72.20
2018-06-11T23:12:54.732Z,72.70
2018-06-11T23:15:22.592Z,72.50
2018-06-11T23:17:50.418Z,73.00
2018-06-11T23:20:18.316Z,73.20
2018-06-11T23:22:46.245Z,73.30
2018-06-11T23:25:14.118Z,73.40
2018-06-11T23:30:09.873Z,73.70
2018-06-11T23:32:38.280Z,73.60
2018-06-11T23:35:06.321Z,73.70
2018-06-11T23:37:34.240Z,73.80
2018-06-11T23:40:02.291Z,74.00
2018-06-11T23:42:30.092Z,74.10
2018-06-11T23:44:58.819Z,74.10
2018-06-11T23:47:26.905Z,74.00
2018-06-11T23:49:54.869Z,73.90
2018-06-11T23:52:23.823Z,74.20
2018-06-11T23:54:51.755Z,74.20
2018-06-11T23:57:19.649Z,74.30
2018-06-11T23:59:47.726Z,74.10
